sensor_id;sensor_type;location;lat;lon;timestamp;pressure;altitude;pressure_sealevel;temperature;humidity
11415;BME280;5763;42.714;23.244;2023-12-20T00:01:01;94846.81;;;3.46;69.75
11415;BME280;5763;42.714;23.244;2023-12-20T00:03:29;94845.28;;;3.45;69.59
11415;BME280;5763;42.714;23.244;2023-12-20T00:05:56;94761.75;;;2.69;70.46
11415;BME280;5763;42.714;23.244;2023-12-20T00:08:24;94898.56;;;3.51;71.30
11415;BME280;5763;42.714;23.244;2023-12-20T00:10:52;94826.00;;;3.39;71.45
11415;BME280;5763;42.714;23.244;2023-12-20T00:13:19;94898.06;;;3.63;72.25
11415;BME280;5763;42.714;23.244;2023-12-20T00:15:46;94816.41;;;3.35;72.25
11415;BME280;5763;42.714;23.244;2023-12-20T00:18:13;94819.00;;;3.49;72.35
11415;BME280;5763;42.714;23.244;2023-12-20T00:20:40;94769.13;;;3.13;72.44
11415;BME280;5763;42.714;23.244;2023-12-20T00:23:08;94743.13;;;2.82;72.14
11415;BME280;5763;42.714;23.244;2023-12-20T00:25:35;94783.59;;;3.33;72.24
11415;BME280;5763;42.714;23.244;2023-12-20T00:28:04;94865.28;;;3.95;72.94
11415;BME280;5763;42.714;23.244;2023-12-20T00:30:31;94748.03;;;3.34;71.97
11415;BME280;5763;42.714;23.244;2023-12-20T00:32:58;94734.38;;;3.11;71.97
11415;BME280;5763;42.714;23.244;2023-12-20T00:35:25;94772.34;;;3.38;72.13
11415;BME280;5763;42.714;23.244;2023-12-20T00:37:52;94779.25;;;3.42;72.24
11415;BME280;5763;42.714;23.244;2023-12-20T00:40:20;94866.09;;;4.25;72.42
11415;BME280;5763;42.714;23.244;2023-12-20T00:42:47;94867.00;;;4.15;72.50
11415;BME280;5763;42.714;23.244;2023-12-20T00:45:16;94788.63;;;3.71;72.54
11415;BME280;5763;42.714;23.244;2023-12-20T00:47:43;94694.13;;;3.20;70.51
11415;BME280;5763;42.714;23.244;2023-12-20T00:50:10;94812.41;;;3.87;70.66
11415;BME280;5763;42.714;23.244;2023-12-20T00:52:37;94847.69;;;4.13;70.29
11415;BME280;5763;42.714;23.244;2023-12-20T00:55:05;94862.16;;;3.96;70.47
11415;BME280;5763;42.714;23.244;2023-12-20T00:57:33;94854.63;;;4.14;69.97
11415;BME280;5763;42.714;23.244;2023-12-20T01:00:00;94715.97;;;2.96;69.56
11415;BME280;5763;42.714;23.244;2023-12-20T01:02:29;94748.69;;;3.45;69.51
11415;BME280;5763;42.714;23.244;2023-12-20T01:04:56;94775.19;;;3.61;69.22
11415;BME280;5763;42.714;23.244;2023-12-20T01:07:23;94770.19;;;3.59;69.19
11415;BME280;5763;42.714;23.244;2023-12-20T01:09:50;94766.47;;;3.46;69.23
11415;BME280;5763;42.714;23.244;2023-12-20T01:12:17;94753.66;;;3.13;69.37
11415;BME280;5763;42.714;23.244;2023-12-20T01:14:45;94694.41;;;2.92;69.59
11415;BME280;5763;42.714;23.244;2023-12-20T01:17:12;94730.13;;;3.10;69.14
11415;BME280;5763;42.714;23.244;2023-12-20T01:19:41;94819.47;;;3.77;68.83
11415;BME280;5763;42.714;23.244;2023-12-20T01:22:08;94643.84;;;2.49;69.36
11415;BME280;5763;42.714;23.244;2023-12-20T01:24:36;94825.75;;;3.67;69.29
11415;BME280;5763;42.714;23.244;2023-12-20T01:27:03;94791.94;;;3.45;68.85
11415;BME280;5763;42.714;23.244;2023-12-20T01:29:33;94683.03;;;2.67;68.83
11415;BME280;5763;42.714;23.244;2023-12-20T01:32:00;94708.34;;;2.87;69.08
11415;BME280;5763;42.714;23.244;2023-12-20T01:34:27;94809.31;;;3.51;68.69
11415;BME280;5763;42.714;23.244;2023-12-20T01:36:56;94737.72;;;2.82;68.78
11415;BME280;5763;42.714;23.244;2023-12-20T01:39:24;94802.09;;;3.38;68.99
11415;BME280;5763;42.714;23.244;2023-12-20T01:41:51;94786.66;;;3.35;69.15
11415;BME280;5763;42.714;23.244;2023-12-20T01:44:18;94797.75;;;3.47;68.40
11415;BME280;5763;42.714;23.244;2023-12-20T01:46:45;94731.38;;;3.02;67.89
11415;BME280;5763;42.714;23.244;2023-12-20T01:49:13;94788.28;;;3.29;68.63
11415;BME280;5763;42.714;23.244;2023-12-20T01:51:41;94780.69;;;3.13;68.48
11415;BME280;5763;42.714;23.244;2023-12-20T01:54:10;94711.44;;;2.86;68.46
11415;BME280;5763;42.714;23.244;2023-12-20T01:56:38;94693.38;;;2.76;68.11
11415;BME280;5763;42.714;23.244;2023-12-20T01:59:07;94704.38;;;2.55;68.23
11415;BME280;5763;42.714;23.244;2023-12-20T02:01:35;94730.63;;;2.98;68.52
11415;BME280;5763;42.714;23.244;2023-12-20T02:04:02;94782.22;;;3.14;68.45
11415;BME280;5763;42.714;23.244;2023-12-20T02:06:30;94631.59;;;2.37;68.45
11415;BME280;5763;42.714;23.244;2023-12-20T02:08:58;94689.97;;;2.72;68.43
11415;BME280;5763;42.714;23.244;2023-12-20T02:11:26;94584.91;;;1.96;68.57
11415;BME280;5763;42.714;23.244;2023-12-20T02:13:56;94764.69;;;3.29;68.61
11415;BME280;5763;42.714;23.244;2023-12-20T02:16:24;94721.34;;;3.03;68.40
11415;BME280;5763;42.714;23.244;2023-12-20T02:18:51;94622.09;;;2.26;68.43
11415;BME280;5763;42.714;23.244;2023-12-20T02:21:18;94752.94;;;3.06;67.86
11415;BME280;5763;42.714;23.244;2023-12-20T02:23:48;94634.19;;;2.51;68.43
11415;BME280;5763;42.714;23.244;2023-12-20T02:26:15;94681.41;;;2.80;68.72
11415;BME280;5763;42.714;23.244;2023-12-20T02:28:44;94737.53;;;3.03;68.30
11415;BME280;5763;42.714;23.244;2023-12-20T02:31:14;94727.31;;;2.80;68.48
11415;BME280;5763;42.714;23.244;2023-12-20T02:33:41;94735.13;;;3.15;67.74
11415;BME280;5763;42.714;23.244;2023-12-20T02:36:09;94749.75;;;3.18;67.96
11415;BME280;5763;42.714;23.244;2023-12-20T02:38:36;94609.75;;;2.21;67.51
11415;BME280;5763;42.714;23.244;2023-12-20T02:41:05;94735.81;;;3.19;67.81
11415;BME280;5763;42.714;23.244;2023-12-20T02:43:32;94582.94;;;2.04;67.16
11415;BME280;5763;42.714;23.244;2023-12-20T02:45:59;94607.78;;;2.29;67.35
11415;BME280;5763;42.714;23.244;2023-12-20T02:48:26;94619.66;;;2.38;67.35
11415;BME280;5763;42.714;23.244;2023-12-20T02:50:54;94726.69;;;3.06;68.09
11415;BME280;5763;42.714;23.244;2023-12-20T02:53:21;94531.09;;;1.82;68.19
11415;BME280;5763;42.714;23.244;2023-12-20T02:55:48;94673.81;;;2.65;67.65
11415;BME280;5763;42.714;23.244;2023-12-20T02:58:17;94552.25;;;1.84;67.21
11415;BME280;5763;42.714;23.244;2023-12-20T03:00:44;94732.06;;;3.10;67.57
11415;BME280;5763;42.714;23.244;2023-12-20T03:03:11;94658.63;;;2.34;68.24
11415;BME280;5763;42.714;23.244;2023-12-20T03:05:37;94725.19;;;3.02;67.46
11415;BME280;5763;42.714;23.244;2023-12-20T03:08:04;94729.72;;;3.12;67.15
11415;BME280;5763;42.714;23.244;2023-12-20T03:10:32;94687.22;;;2.75;67.38
11415;BME280;5763;42.714;23.244;2023-12-20T03:12:59;94768.88;;;2.93;67.93
11415;BME280;5763;42.714;23.244;2023-12-20T03:15:27;94654.63;;;2.52;67.66
11415;BME280;5763;42.714;23.244;2023-12-20T03:17:55;94709.88;;;2.88;67.72
11415;BME280;5763;42.714;23.244;2023-12-20T03:20:24;94553.44;;;1.79;67.72
11415;BME280;5763;42.714;23.244;2023-12-20T03:22:51;94715.94;;;2.99;67.99
11415;BME280;5763;42.714;23.244;2023-12-20T03:25:18;94751.50;;;2.98;67.68
11415;BME280;5763;42.714;23.244;2023-12-20T03:27:46;94648.50;;;2.48;68.04
11415;BME280;5763;42.714;23.244;2023-12-20T03:30:13;94705.94;;;2.96;67.99
11415;BME280;5763;42.714;23.244;2023-12-20T03:32:42;94575.88;;;1.69;68.17
11415;BME280;5763;42.714;23.244;2023-12-20T03:35:09;94512.00;;;1.59;67.79
11415;BME280;5763;42.714;23.244;2023-12-20T03:37:35;94703.31;;;2.86;67.99
11415;BME280;5763;42.714;23.244;2023-12-20T03:40:03;94548.97;;;1.62;67.71
11415;BME280;5763;42.714;23.244;2023-12-20T03:42:30;94733.03;;;2.89;67.46
11415;BME280;5763;42.714;23.244;2023-12-20T03:44:57;94684.03;;;2.87;67.48
11415;BME280;5763;42.714;23.244;2023-12-20T03:47:25;94615.38;;;2.44;67.07
11415;BME280;5763;42.714;23.244;2023-12-20T03:49:53;94600.81;;;2.31;67.04
11415;BME280;5763;42.714;23.244;2023-12-20T03:52:20;94526.31;;;1.49;67.23
11415;BME280;5763;42.714;23.244;2023-12-20T03:54:48;94499.75;;;1.48;67.83
11415;BME280;5763;42.714;23.244;2023-12-20T03:57:15;94662.75;;;2.49;67.49
11415;BME280;5763;42.714;23.244;2023-12-20T03:59:42;94740.06;;;2.80;67.17
11415;BME280;5763;42.714;23.244;2023-12-20T04:02:09;94515.50;;;1.53;66.88
11415;BME280;5763;42.714;23.244;2023-12-20T04:04:36;94683.78;;;2.71;67.27
11415;BME280;5763;42.714;23.244;2023-12-20T04:07:05;94687.75;;;2.60;68.36
11415;BME280;5763;42.714;23.244;2023-12-20T04:09:32;94632.53;;;2.20;68.58
11415;BME280;5763;42.714;23.244;2023-12-20T04:11:59;94670.00;;;2.59;68.59
11415;BME280;5763;42.714;23.244;2023-12-20T04:14:26;94499.34;;;1.56;68.00
11415;BME280;5763;42.714;23.244;2023-12-20T04:16:54;94533.78;;;1.82;67.46
11415;BME280;5763;42.714;23.244;2023-12-20T04:19:21;94671.84;;;2.69;67.32
11415;BME280;5763;42.714;23.244;2023-12-20T04:21:48;94492.44;;;1.48;67.46
11415;BME280;5763;42.714;23.244;2023-12-20T04:24:16;94654.94;;;2.61;67.12
11415;BME280;5763;42.714;23.244;2023-12-20T04:26:43;94485.59;;;1.37;66.60
11415;BME280;5763;42.714;23.244;2023-12-20T04:29:11;94582.09;;;2.10;67.02
11415;BME280;5763;42.714;23.244;2023-12-20T04:31:38;94592.41;;;2.22;66.24
11415;BME280;5763;42.714;23.244;2023-12-20T04:34:05;94662.59;;;2.66;66.58
11415;BME280;5763;42.714;23.244;2023-12-20T04:36:32;94659.13;;;2.66;66.46
11415;BME280;5763;42.714;23.244;2023-12-20T04:38:59;94642.28;;;2.51;66.61
11415;BME280;5763;42.714;23.244;2023-12-20T04:41:30;94526.72;;;1.48;66.64
11415;BME280;5763;42.714;23.244;2023-12-20T04:43:57;94574.13;;;2.00;66.60
11415;BME280;5763;42.714;23.244;2023-12-20T04:46:26;94659.97;;;2.59;66.37
11415;BME280;5763;42.714;23.244;2023-12-20T04:48:53;94480.72;;;1.21;66.45
11415;BME280;5763;42.714;23.244;2023-12-20T04:51:20;94625.38;;;2.44;66.79
11415;BME280;5763;42.714;23.244;2023-12-20T04:53:48;94577.13;;;2.05;66.37
11415;BME280;5763;42.714;23.244;2023-12-20T04:56:15;94540.66;;;1.90;65.98
11415;BME280;5763;42.714;23.244;2023-12-20T04:58:44;94542.59;;;1.86;67.10
11415;BME280;5763;42.714;23.244;2023-12-20T05:01:11;94528.88;;;1.67;67.32
11415;BME280;5763;42.714;23.244;2023-12-20T05:03:38;94681.66;;;2.49;66.93
11415;BME280;5763;42.714;23.244;2023-12-20T05:06:06;94514.34;;;1.57;67.40
11415;BME280;5763;42.714;23.244;2023-12-20T05:08:33;94636.09;;;2.54;66.99
11415;BME280;5763;42.714;23.244;2023-12-20T05:11:00;94485.78;;;1.63;66.34
11415;BME280;5763;42.714;23.244;2023-12-20T05:13:27;94550.22;;;1.98;66.38
11415;BME280;5763;42.714;23.244;2023-12-20T05:15:56;94477.84;;;1.46;66.29
11415;BME280;5763;42.714;23.244;2023-12-20T05:18:23;94630.41;;;2.45;66.66
11415;BME280;5763;42.714;23.244;2023-12-20T05:20:50;94598.50;;;2.30;66.47
11415;BME280;5763;42.714;23.244;2023-12-20T05:23:17;94435.72;;;1.15;65.95
11415;BME280;5763;42.714;23.244;2023-12-20T05:25:45;94513.28;;;1.41;66.85
11415;BME280;5763;42.714;23.244;2023-12-20T05:28:13;94619.25;;;2.43;67.87
11415;BME280;5763;42.714;23.244;2023-12-20T05:30:40;94615.63;;;2.57;66.59
11415;BME280;5763;42.714;23.244;2023-12-20T05:33:09;94546.72;;;2.05;66.08
11415;BME280;5763;42.714;23.244;2023-12-20T05:35:36;94623.09;;;2.42;66.09
11415;BME280;5763;42.714;23.244;2023-12-20T05:38:03;94619.66;;;2.38;65.92
11415;BME280;5763;42.714;23.244;2023-12-20T05:40:30;94441.50;;;1.13;66.58
11415;BME280;5763;42.714;23.244;2023-12-20T05:42:57;94401.66;;;0.87;67.13
11415;BME280;5763;42.714;23.244;2023-12-20T05:45:25;94599.75;;;2.22;67.52
11415;BME280;5763;42.714;23.244;2023-12-20T05:47:52;94414.31;;;0.94;67.50
11415;BME280;5763;42.714;23.244;2023-12-20T05:50:21;94598.25;;;2.14;67.92
11415;BME280;5763;42.714;23.244;2023-12-20T05:52:48;94655.63;;;2.28;68.18
11415;BME280;5763;42.714;23.244;2023-12-20T05:55:16;94596.31;;;2.18;68.01
11415;BME280;5763;42.714;23.244;2023-12-20T05:57:43;94512.00;;;1.59;68.32
11415;BME280;5763;42.714;23.244;2023-12-20T06:00:11;94482.84;;;1.47;68.49
11415;BME280;5763;42.714;23.244;2023-12-20T06:02:39;94412.28;;;1.08;68.51
11415;BME280;5763;42.714;23.244;2023-12-20T06:05:07;94509.22;;;1.70;68.54
11415;BME280;5763;42.714;23.244;2023-12-20T06:07:35;94584.78;;;2.14;68.99
11415;BME280;5763;42.714;23.244;2023-12-20T06:10:03;94488.50;;;1.60;68.44
11415;BME280;5763;42.714;23.244;2023-12-20T06:12:31;94385.47;;;0.91;68.67
11415;BME280;5763;42.714;23.244;2023-12-20T06:15:01;94541.84;;;1.86;68.99
11415;BME280;5763;42.714;23.244;2023-12-20T06:17:28;94412.22;;;1.19;69.11
11415;BME280;5763;42.714;23.244;2023-12-20T06:19:57;94523.69;;;1.93;68.90
11415;BME280;5763;42.714;23.244;2023-12-20T06:22:24;94617.69;;;2.42;68.84
11415;BME280;5763;42.714;23.244;2023-12-20T06:24:52;94465.28;;;1.22;68.83
11415;BME280;5763;42.714;23.244;2023-12-20T06:27:19;94455.72;;;1.17;68.95
11415;BME280;5763;42.714;23.244;2023-12-20T06:29:47;94596.56;;;2.34;68.96
11415;BME280;5763;42.714;23.244;2023-12-20T06:32:14;94602.19;;;2.53;68.44
11415;BME280;5763;42.714;23.244;2023-12-20T06:34:41;94534.78;;;2.02;68.42
11415;BME280;5763;42.714;23.244;2023-12-20T06:37:09;94573.94;;;2.17;68.68
11415;BME280;5763;42.714;23.244;2023-12-20T06:39:35;94532.63;;;1.83;69.06
11415;BME280;5763;42.714;23.244;2023-12-20T06:42:04;94518.31;;;1.86;68.78
11415;BME280;5763;42.714;23.244;2023-12-20T06:44:31;94594.75;;;2.20;69.72
11415;BME280;5763;42.714;23.244;2023-12-20T06:46:58;94398.09;;;1.01;69.90
11415;BME280;5763;42.714;23.244;2023-12-20T06:49:26;94469.53;;;1.70;69.47
11415;BME280;5763;42.714;23.244;2023-12-20T06:51:53;94381.47;;;1.13;68.94
11415;BME280;5763;42.714;23.244;2023-12-20T06:54:20;94589.06;;;2.52;68.94
11415;BME280;5763;42.714;23.244;2023-12-20T06:56:47;94551.69;;;2.06;68.64
11415;BME280;5763;42.714;23.244;2023-12-20T06:59:16;94396.06;;;1.19;68.76
11415;BME280;5763;42.714;23.244;2023-12-20T07:01:47;94640.88;;;2.36;68.56
11415;BME280;5763;42.714;23.244;2023-12-20T07:04:15;94577.50;;;2.51;67.64
11415;BME280;5763;42.714;23.244;2023-12-20T07:06:45;94377.44;;;1.35;67.04
11415;BME280;5763;42.714;23.244;2023-12-20T07:09:13;94582.75;;;2.65;67.30
11415;BME280;5763;42.714;23.244;2023-12-20T07:11:41;94374.59;;;1.52;66.33
11415;BME280;5763;42.714;23.244;2023-12-20T07:14:08;94503.50;;;2.45;66.45
11415;BME280;5763;42.714;23.244;2023-12-20T07:16:37;94490.34;;;2.51;66.13
11415;BME280;5763;42.714;23.244;2023-12-20T07:19:04;94583.75;;;3.15;65.85
11415;BME280;5763;42.714;23.244;2023-12-20T07:21:31;94555.81;;;3.22;65.49
11415;BME280;5763;42.714;23.244;2023-12-20T07:23:59;94447.53;;;2.49;66.06
11415;BME280;5763;42.714;23.244;2023-12-20T07:26:26;94484.69;;;2.72;66.69
11415;BME280;5763;42.714;23.244;2023-12-20T07:28:53;94584.19;;;3.40;66.43
11415;BME280;5763;42.714;23.244;2023-12-20T07:31:20;94479.53;;;3.11;66.07
11415;BME280;5763;42.714;23.244;2023-12-20T07:33:51;94350.28;;;2.53;65.25
11415;BME280;5763;42.714;23.244;2023-12-20T07:36:19;94555.63;;;3.89;64.90
11415;BME280;5763;42.714;23.244;2023-12-20T07:38:47;94489.06;;;3.19;65.01
11415;BME280;5763;42.714;23.244;2023-12-20T07:41:14;94500.47;;;2.73;66.51
11415;BME280;5763;42.714;23.244;2023-12-20T07:43:41;94550.72;;;3.57;66.64
11415;BME280;5763;42.714;23.244;2023-12-20T07:46:09;94436.97;;;2.88;66.40
11415;BME280;5763;42.714;23.244;2023-12-20T07:48:36;94397.63;;;2.27;66.65
11415;BME280;5763;42.714;23.244;2023-12-20T07:51:05;94554.97;;;3.28;67.64
11415;BME280;5763;42.714;23.244;2023-12-20T07:53:34;94338.78;;;1.85;67.94
11415;BME280;5763;42.714;23.244;2023-12-20T07:56:01;94468.50;;;2.68;68.57
11415;BME280;5763;42.714;23.244;2023-12-20T07:58:28;94468.19;;;2.63;68.60
11415;BME280;5763;42.714;23.244;2023-12-20T08:00:57;94552.88;;;3.13;69.58
11415;BME280;5763;42.714;23.244;2023-12-20T08:03:24;94471.00;;;2.52;69.51
11415;BME280;5763;42.714;23.244;2023-12-20T08:05:51;94496.06;;;2.86;69.47
11415;BME280;5763;42.714;23.244;2023-12-20T08:08:20;94340.47;;;2.06;69.39
11415;BME280;5763;42.714;23.244;2023-12-20T08:10:47;94526.22;;;3.41;69.18
11415;BME280;5763;42.714;23.244;2023-12-20T08:13:14;94521.44;;;3.52;68.52
11415;BME280;5763;42.714;23.244;2023-12-20T08:15:42;94535.22;;;3.61;68.51
11415;BME280;5763;42.714;23.244;2023-12-20T08:18:09;94432.09;;;3.06;68.48
11415;BME280;5763;42.714;23.244;2023-12-20T08:20:36;94522.28;;;3.72;68.12
11415;BME280;5763;42.714;23.244;2023-12-20T08:23:04;94504.41;;;3.78;67.76
11415;BME280;5763;42.714;23.244;2023-12-20T08:25:32;94483.47;;;3.82;67.40
11415;BME280;5763;42.714;23.244;2023-12-20T08:28:00;94315.88;;;2.83;67.30
11415;BME280;5763;42.714;23.244;2023-12-20T08:30:29;94451.34;;;3.61;67.80
11415;BME280;5763;42.714;23.244;2023-12-20T08:32:57;94519.25;;;3.93;68.54
11415;BME280;5763;42.714;23.244;2023-12-20T08:35:26;94506.38;;;4.01;68.01
11415;BME280;5763;42.714;23.244;2023-12-20T08:37:53;94378.53;;;3.24;68.09
11415;BME280;5763;42.714;23.244;2023-12-20T08:40:21;94428.88;;;3.41;68.36
11415;BME280;5763;42.714;23.244;2023-12-20T08:42:50;94410.13;;;3.54;68.16
11415;BME280;5763;42.714;23.244;2023-12-20T08:45:20;94503.44;;;4.15;68.23
11415;BME280;5763;42.714;23.244;2023-12-20T08:47:47;94494.06;;;4.19;67.98
11415;BME280;5763;42.714;23.244;2023-12-20T08:50:15;94449.88;;;3.80;68.07
11415;BME280;5763;42.714;23.244;2023-12-20T08:52:42;94495.94;;;4.22;68.10
11415;BME280;5763;42.714;23.244;2023-12-20T08:55:10;94301.53;;;3.09;67.74
11415;BME280;5763;42.714;23.244;2023-12-20T08:57:37;94485.22;;;4.38;67.66
11415;BME280;5763;42.714;23.244;2023-12-20T09:00:07;94419.47;;;3.72;67.69
11415;BME280;5763;42.714;23.244;2023-12-20T09:02:35;94467.41;;;4.37;67.92
11415;BME280;5763;42.714;23.244;2023-12-20T09:05:03;94289.28;;;3.28;68.07
11415;BME280;5763;42.714;23.244;2023-12-20T09:07:31;94337.84;;;3.77;67.87
11415;BME280;5763;42.714;23.244;2023-12-20T09:09:58;94435.50;;;4.48;68.13
11415;BME280;5763;42.714;23.244;2023-12-20T09:12:25;94414.59;;;4.06;68.62
11415;BME280;5763;42.714;23.244;2023-12-20T09:14:53;94418.38;;;4.12;68.96
11415;BME280;5763;42.714;23.244;2023-12-20T09:17:22;94316.69;;;3.49;68.66
11415;BME280;5763;42.714;23.244;2023-12-20T09:19:49;94452.69;;;4.38;68.52
11415;BME280;5763;42.714;23.244;2023-12-20T09:22:18;94343.97;;;4.01;68.27
11415;BME280;5763;42.714;23.244;2023-12-20T09:24:47;94260.59;;;3.34;68.42
11415;BME280;5763;42.714;23.244;2023-12-20T09:27:14;94228.72;;;3.02;68.58
11415;BME280;5763;42.714;23.244;2023-12-20T09:29:41;94256.72;;;3.35;69.34
11415;BME280;5763;42.714;23.244;2023-12-20T09:32:09;94194.16;;;3.13;68.89
11415;BME280;5763;42.714;23.244;2023-12-20T09:34:37;94386.50;;;4.59;68.98
11415;BME280;5763;42.714;23.244;2023-12-20T09:37:04;94386.50;;;4.59;69.08
11415;BME280;5763;42.714;23.244;2023-12-20T09:39:33;94375.94;;;4.64;68.88
11415;BME280;5763;42.714;23.244;2023-12-20T09:42:02;94260.91;;;3.78;68.72
11415;BME280;5763;42.714;23.244;2023-12-20T09:44:30;94356.81;;;4.71;69.20
11415;BME280;5763;42.714;23.244;2023-12-20T09:46:58;94222.28;;;3.94;68.89
11415;BME280;5763;42.714;23.244;2023-12-20T09:49:30;94280.34;;;4.64;68.12
11415;BME280;5763;42.714;23.244;2023-12-20T09:52:00;94278.03;;;4.62;67.46
11415;BME280;5763;42.714;23.244;2023-12-20T09:54:28;94377.19;;;4.95;67.58
11415;BME280;5763;42.714;23.244;2023-12-20T09:56:56;94278.81;;;4.27;68.83
11415;BME280;5763;42.714;23.244;2023-12-20T09:59:23;94352.56;;;4.70;68.73
11415;BME280;5763;42.714;23.244;2023-12-20T10:01:51;94250.75;;;3.63;69.83
11415;BME280;5763;42.714;23.244;2023-12-20T10:04:21;94325.75;;;4.40;70.54
11415;BME280;5763;42.714;23.244;2023-12-20T10:06:48;94224.13;;;3.81;69.89
11415;BME280;5763;42.714;23.244;2023-12-20T10:09:17;94338.56;;;4.91;69.61
11415;BME280;5763;42.714;23.244;2023-12-20T10:11:45;94383.47;;;5.24;68.40
11415;BME280;5763;42.714;23.244;2023-12-20T10:14:12;94221.31;;;4.39;68.04
11415;BME280;5763;42.714;23.244;2023-12-20T10:16:41;94311.94;;;5.18;68.46
11415;BME280;5763;42.714;23.244;2023-12-20T10:19:08;94303.59;;;5.13;67.39
11415;BME280;5763;42.714;23.244;2023-12-20T10:21:35;94135.31;;;4.43;66.76
11415;BME280;5763;42.714;23.244;2023-12-20T10:24:02;94208.94;;;5.02;66.64
11415;BME280;5763;42.714;23.244;2023-12-20T10:26:34;94341.94;;;5.91;66.20
11415;BME280;5763;42.714;23.244;2023-12-20T10:29:02;94296.75;;;5.97;65.60
11415;BME280;5763;42.714;23.244;2023-12-20T10:31:31;94229.78;;;5.50;65.76
11415;BME280;5763;42.714;23.244;2023-12-20T10:34:03;94213.25;;;5.44;65.63
11415;BME280;5763;42.714;23.244;2023-12-20T10:36:32;94285.63;;;6.20;65.13
11415;BME280;5763;42.714;23.244;2023-12-20T10:39:00;94270.66;;;7.16;63.46
11415;BME280;5763;42.714;23.244;2023-12-20T10:41:31;94207.03;;;7.90;59.88
11415;BME280;5763;42.714;23.244;2023-12-20T10:44:00;94196.16;;;8.42;57.32
11415;BME280;5763;42.714;23.244;2023-12-20T10:46:30;94128.28;;;8.35;55.77
11415;BME280;5763;42.714;23.244;2023-12-20T10:48:58;94140.75;;;9.12;54.02
11415;BME280;5763;42.714;23.244;2023-12-20T10:51:26;94099.19;;;9.44;52.08
11415;BME280;5763;42.714;23.244;2023-12-20T10:53:55;94150.56;;;10.08;50.95
11415;BME280;5763;42.714;23.244;2023-12-20T10:56:22;94194.28;;;10.68;49.73
11415;BME280;5763;42.714;23.244;2023-12-20T10:58:52;94236.78;;;12.13;47.88
11415;BME280;5763;42.714;23.244;2023-12-20T11:01:21;94216.00;;;12.21;45.72
11415;BME280;5763;42.714;23.244;2023-12-20T11:03:52;94261.91;;;13.08;44.21
11415;BME280;5763;42.714;23.244;2023-12-20T11:06:29;94098.63;;;12.94;42.05
11415;BME280;5763;42.714;23.244;2023-12-20T11:09:06;94202.81;;;14.12;41.25
11415;BME280;5763;42.714;23.244;2023-12-20T11:11:38;94163.81;;;14.14;40.09
11415;BME280;5763;42.714;23.244;2023-12-20T11:14:15;94122.84;;;14.78;37.72
11415;BME280;5763;42.714;23.244;2023-12-20T11:16:44;94041.56;;;14.57;36.77
11415;BME280;5763;42.714;23.244;2023-12-20T11:19:12;94066.06;;;14.86;36.94
11415;BME280;5763;42.714;23.244;2023-12-20T11:21:40;94135.47;;;14.90;37.15
11415;BME280;5763;42.714;23.244;2023-12-20T11:24:08;94032.97;;;14.80;36.48
11415;BME280;5763;42.714;23.244;2023-12-20T11:26:36;94033.78;;;15.50;35.34
11415;BME280;5763;42.714;23.244;2023-12-20T11:29:33;94143.56;;;17.53;33.27
11415;BME280;5763;42.714;23.244;2023-12-20T11:32:02;94098.16;;;18.95;30.17
11415;BME280;5763;42.714;23.244;2023-12-20T11:34:32;94070.03;;;19.57;28.98
11415;BME280;5763;42.714;23.244;2023-12-20T11:37:00;94147.97;;;19.59;29.28
11415;BME280;5763;42.714;23.244;2023-12-20T11:39:28;94174.00;;;19.03;30.57
11415;BME280;5763;42.714;23.244;2023-12-20T11:41:56;94098.00;;;19.11;29.18
11415;BME280;5763;42.714;23.244;2023-12-20T11:44:25;94150.00;;;20.44;28.31
11415;BME280;5763;42.714;23.244;2023-12-20T11:46:54;94152.91;;;20.70;28.15
11415;BME280;5763;42.714;23.244;2023-12-20T11:49:25;94017.34;;;21.02;26.39
11415;BME280;5763;42.714;23.244;2023-12-20T11:51:54;93982.22;;;21.77;25.05
11415;BME280;5763;42.714;23.244;2023-12-20T11:54:22;94014.38;;;22.86;23.90
11415;BME280;5763;42.714;23.244;2023-12-20T11:56:49;94116.78;;;24.16;22.94
11415;BME280;5763;42.714;23.244;2023-12-20T11:59:16;94095.84;;;23.74;23.38
11415;BME280;5763;42.714;23.244;2023-12-20T12:01:48;94051.25;;;22.51;23.90
11415;BME280;5763;42.714;23.244;2023-12-20T12:04:17;94126.81;;;22.27;24.61
11415;BME280;5763;42.714;23.244;2023-12-20T12:06:46;94026.78;;;21.64;25.23
11415;BME280;5763;42.714;23.244;2023-12-20T12:09:13;94066.00;;;21.40;26.19
11415;BME280;5763;42.714;23.244;2023-12-20T12:11:41;94020.19;;;20.70;26.68
11415;BME280;5763;42.714;23.244;2023-12-20T12:14:08;94029.69;;;21.58;25.80
11415;BME280;5763;42.714;23.244;2023-12-20T12:16:37;94026.09;;;21.97;25.30
11415;BME280;5763;42.714;23.244;2023-12-20T12:19:04;93922.09;;;21.35;25.01
11415;BME280;5763;42.714;23.244;2023-12-20T12:21:33;93965.38;;;21.82;24.53
11415;BME280;5763;42.714;23.244;2023-12-20T12:24:07;94050.81;;;22.13;25.08
11415;BME280;5763;42.714;23.244;2023-12-20T12:26:34;94064.97;;;22.49;24.44
11415;BME280;5763;42.714;23.244;2023-12-20T12:29:02;94005.13;;;21.83;25.01
11415;BME280;5763;42.714;23.244;2023-12-20T12:31:30;94012.94;;;20.80;25.98
11415;BME280;5763;42.714;23.244;2023-12-20T12:33:57;93991.25;;;19.79;27.33
11415;BME280;5763;42.714;23.244;2023-12-20T12:36:24;94080.16;;;20.16;27.33
11415;BME280;5763;42.714;23.244;2023-12-20T12:38:56;93908.47;;;18.85;27.71
11415;BME280;5763;42.714;23.244;2023-12-20T12:41:23;94012.00;;;18.34;29.34
11415;BME280;5763;42.714;23.244;2023-12-20T12:43:51;93964.28;;;17.47;29.82
11415;BME280;5763;42.714;23.244;2023-12-20T12:46:18;94005.47;;;17.56;30.57
11415;BME280;5763;42.714;23.244;2023-12-20T12:48:45;93973.50;;;17.08;30.92
11415;BME280;5763;42.714;23.244;2023-12-20T12:51:13;94073.72;;;17.31;31.62
11415;BME280;5763;42.714;23.244;2023-12-20T12:53:41;93895.94;;;15.67;32.72
11415;BME280;5763;42.714;23.244;2023-12-20T12:56:10;93869.56;;;14.47;34.11
11415;BME280;5763;42.714;23.244;2023-12-20T12:58:40;93895.63;;;14.09;35.48
11415;BME280;5763;42.714;23.244;2023-12-20T13:01:07;94043.97;;;14.38;36.96
11415;BME280;5763;42.714;23.244;2023-12-20T13:03:35;93976.28;;;12.93;38.30
11415;BME280;5763;42.714;23.244;2023-12-20T13:06:02;94056.09;;;13.04;40.45
11415;BME280;5763;42.714;23.244;2023-12-20T13:08:31;93986.13;;;12.25;41.04
11415;BME280;5763;42.714;23.244;2023-12-20T13:10:59;94049.56;;;12.47;42.40
11415;BME280;5763;42.714;23.244;2023-12-20T13:13:28;93967.38;;;11.46;43.27